sensor_id;sensor_type;location;lat;lon;timestamp;pressure;altitude;pressure_sealevel;temperature;humidity
16255;BME280;8235;52.198;9.904;2023-09-30T00:01:40;101573.31;;;14.24;93.66
16255;BME280;8235;52.198;9.904;2023-09-30T00:04:07;101573.41;;;14.22;93.81
16255;BME280;8235;52.198;9.904;2023-09-30T00:06:34;101586.03;;;14.20;93.98
16255;BME280;8235;52.198;9.904;2023-09-30T00:09:00;101578.94;;;14.19;93.85
16255;BME280;8235;52.198;9.904;2023-09-30T00:11:27;101589.84;;;14.16;94.27
16255;BME280;8235;52.198;9.904;2023-09-30T00:13:55;101602.63;;;14.13;94.80
16255;BME280;8235;52.198;9.904;2023-09-30T00:16:21;101585.88;;;14.09;95.12
16255;BME280;8235;52.198;9.904;2023-09-30T00:18:48;101593.81;;;14.11;95.52
16255;BME280;8235;52.198;9.904;2023-09-30T00:21:14;101592.19;;;14.08;95.59
16255;BME280;8235;52.198;9.904;2023-09-30T00:23:41;101606.72;;;14.04;95.76
16255;BME280;8235;52.198;9.904;2023-09-30T00:26:07;101618.47;;;14.02;95.85
16255;BME280;8235;52.198;9.904;2023-09-30T00:28:34;101614.25;;;13.98;95.56
16255;BME280;8235;52.198;9.904;2023-09-30T00:31:06;101609.97;;;13.95;96.01
16255;BME280;8235;52.198;9.904;2023-09-30T00:33:34;101607.50;;;13.92;96.42
16255;BME280;8235;52.198;9.904;2023-09-30T00:36:05;101620.19;;;13.88;96.92
16255;BME280;8235;52.198;9.904;2023-09-30T00:38:32;101624.78;;;13.86;96.39
16255;BME280;8235;52.198;9.904;2023-09-30T00:40:58;101621.34;;;13.84;97.12
16255;BME280;8235;52.198;9.904;2023-09-30T00:43:25;101624.09;;;13.83;97.18
16255;BME280;8235;52.198;9.904;2023-09-30T00:45:51;101629.56;;;13.81;96.80
16255;BME280;8235;52.198;9.904;2023-09-30T00:48:24;101627.81;;;13.80;97.09
16255;BME280;8235;52.198;9.904;2023-09-30T00:50:52;101621.06;;;13.75;96.90
16255;BME280;8235;52.198;9.904;2023-09-30T00:53:18;101619.41;;;13.72;96.95
16255;BME280;8235;52.198;9.904;2023-09-30T00:55:45;101616.94;;;13.69;96.90
16255;BME280;8235;52.198;9.904;2023-09-30T00:58:11;101627.72;;;13.68;97.29
16255;BME280;8235;52.198;9.904;2023-09-30T01:00:38;101621.69;;;13.64;97.18
16255;BME280;8235;52.198;9.904;2023-09-30T01:03:05;101623.72;;;13.61;97.23
16255;BME280;8235;52.198;9.904;2023-09-30T01:05:34;101615.00;;;13.57;97.60
16255;BME280;8235;52.198;9.904;2023-09-30T01:08:01;101619.59;;;13.55;97.60
16255;BME280;8235;52.198;9.904;2023-09-30T01:10:29;101617.94;;;13.52;97.73
16255;BME280;8235;52.198;9.904;2023-09-30T01:12:55;101619.00;;;13.50;98.18
16255;BME280;8235;52.198;9.904;2023-09-30T01:15:22;101614.69;;;13.47;98.33
16255;BME280;8235;52.198;9.904;2023-09-30T01:17:48;101607.69;;;13.45;98.56
16255;BME280;8235;52.198;9.904;2023-09-30T01:20:15;101614.13;;;13.42;98.50
16255;BME280;8235;52.198;9.904;2023-09-30T01:22:46;101618.78;;;13.39;98.56
16255;BME280;8235;52.198;9.904;2023-09-30T01:25:12;101618.97;;;13.36;98.77
16255;BME280;8235;52.198;9.904;2023-09-30T01:27:39;101628.88;;;13.34;98.89
16255;BME280;8235;52.198;9.904;2023-09-30T01:30:06;101631.66;;;13.32;99.18
16255;BME280;8235;52.198;9.904;2023-09-30T01:32:36;101632.69;;;13.30;99.11
16255;BME280;8235;52.198;9.904;2023-09-30T01:35:02;101640.91;;;13.27;99.59
16255;BME280;8235;52.198;9.904;2023-09-30T01:37:29;101646.38;;;13.25;99.51
16255;BME280;8235;52.198;9.904;2023-09-30T01:39:57;101648.25;;;13.23;99.82
16255;BME280;8235;52.198;9.904;2023-09-30T01:42:23;101650.25;;;13.19;99.86
16255;BME280;8235;52.198;9.904;2023-09-30T01:44:51;101656.63;;;13.17;100.00
16255;BME280;8235;52.198;9.904;2023-09-30T01:47:17;101655.84;;;13.15;100.00
16255;BME280;8235;52.198;9.904;2023-09-30T01:49:44;101650.66;;;13.12;100.00
16255;BME280;8235;52.198;9.904;2023-09-30T01:52:10;101654.44;;;13.08;100.00
16255;BME280;8235;52.198;9.904;2023-09-30T01:54:37;101652.06;;;13.03;100.00
16255;BME280;8235;52.198;9.904;2023-09-30T01:57:05;101657.56;;;13.00;100.00
16255;BME280;8235;52.198;9.904;2023-09-30T01:59:31;101654.22;;;12.97;100.00
16255;BME280;8235;52.198;9.904;2023-09-30T02:01:58;101648.94;;;12.95;100.00
16255;BME280;8235;52.198;9.904;2023-09-30T02:04:25;101649.97;;;12.93;100.00
16255;BME280;8235;52.198;9.904;2023-09-30T02:06:51;101651.88;;;12.91;100.00
16255;BME280;8235;52.198;9.904;2023-09-30T02:09:17;101647.59;;;12.88;100.00
16255;BME280;8235;52.198;9.904;2023-09-30T02:11:44;101654.75;;;12.88;100.00
16255;BME280;8235;52.198;9.904;2023-09-30T02:14:12;101656.56;;;12.87;100.00
16255;BME280;8235;52.198;9.904;2023-09-30T02:16:38;101655.88;;;12.83;100.00
16255;BME280;8235;52.198;9.904;2023-09-30T02:19:05;101658.63;;;12.82;100.00
16255;BME280;8235;52.198;9.904;2023-09-30T02:21:31;101659.66;;;12.79;100.00
16255;BME280;8235;52.198;9.904;2023-09-30T02:23:58;101656.13;;;12.79;100.00
16255;BME280;8235;52.198;9.904;2023-09-30T02:26:24;101657.94;;;12.78;100.00
16255;BME280;8235;52.198;9.904;2023-09-30T02:28:52;101657.06;;;12.78;100.00
16255;BME280;8235;52.198;9.904;2023-09-30T02:31:20;101666.91;;;12.77;100.00
16255;BME280;8235;52.198;9.904;2023-09-30T02:33:47;101657.25;;;12.75;100.00
16255;BME280;8235;52.198;9.904;2023-09-30T02:36:13;101666.19;;;12.74;100.00
16255;BME280;8235;52.198;9.904;2023-09-30T02:38:40;101667.16;;;12.73;100.00
16255;BME280;8235;52.198;9.904;2023-09-30T02:41:07;101671.53;;;12.74;100.00
16255;BME280;8235;52.198;9.904;2023-09-30T02:43:34;101673.34;;;12.73;100.00
16255;BME280;8235;52.198;9.904;2023-09-30T02:46:00;101661.81;;;12.73;100.00
16255;BME280;8235;52.198;9.904;2023-09-30T02:48:28;101650.38;;;12.71;100.00
16255;BME280;8235;52.198;9.904;2023-09-30T02:50:55;101667.25;;;12.71;100.00
16255;BME280;8235;52.198;9.904;2023-09-30T02:53:21;101664.47;;;12.73;100.00
16255;BME280;8235;52.198;9.904;2023-09-30T02:55:48;101668.00;;;12.73;100.00
16255;BME280;8235;52.198;9.904;2023-09-30T02:58:17;101671.53;;;12.74;100.00
16255;BME280;8235;52.198;9.904;2023-09-30T03:00:47;101674.13;;;12.75;100.00
16255;BME280;8235;52.198;9.904;2023-09-30T03:03:14;101666.13;;;12.75;100.00
16255;BME280;8235;52.198;9.904;2023-09-30T03:05:42;101672.31;;;12.76;100.00
16255;BME280;8235;52.198;9.904;2023-09-30T03:08:10;101684.84;;;12.75;100.00
16255;BME280;8235;52.198;9.904;2023-09-30T03:10:37;101677.75;;;12.74;100.00
16255;BME280;8235;52.198;9.904;2023-09-30T03:13:05;101681.22;;;12.76;100.00
16255;BME280;8235;52.198;9.904;2023-09-30T03:15:34;101666.97;;;12.76;100.00
16255;BME280;8235;52.198;9.904;2023-09-30T03:18:01;101670.44;;;12.78;100.00
16255;BME280;8235;52.198;9.904;2023-09-30T03:20:29;101682.06;;;12.77;100.00
16255;BME280;8235;52.198;9.904;2023-09-30T03:22:57;101684.75;;;12.77;100.00
16255;BME280;8235;52.198;9.904;2023-09-30T03:25:24;101684.84;;;12.75;100.00
16255;BME280;8235;52.198;9.904;2023-09-30T03:27:51;101672.31;;;12.76;100.00
16255;BME280;8235;52.198;9.904;2023-09-30T03:30:25;101679.41;;;12.77;100.00
16255;BME280;8235;52.198;9.904;2023-09-30T03:32:52;101679.47;;;12.75;100.00
16255;BME280;8235;52.198;9.904;2023-09-30T03:35:18;101686.63;;;12.75;100.00
16255;BME280;8235;52.198;9.904;2023-09-30T03:37:47;101678.63;;;12.75;100.00
16255;BME280;8235;52.198;9.904;2023-09-30T03:40:15;101672.31;;;12.76;100.00
16255;BME280;8235;52.198;9.904;2023-09-30T03:42:45;101674.06;;;12.77;100.00
16255;BME280;8235;52.198;9.904;2023-09-30T03:45:14;101678.47;;;12.78;100.00
16255;BME280;8235;52.198;9.904;2023-09-30T03:47:42;101674.91;;;12.77;100.00
16255;BME280;8235;52.198;9.904;2023-09-30T03:50:09;101673.19;;;12.76;100.00
16255;BME280;8235;52.198;9.904;2023-09-30T03:52:40;101673.97;;;12.78;100.00
16255;BME280;8235;52.198;9.904;2023-09-30T03:55:09;101674.06;;;12.77;100.00
16255;BME280;8235;52.198;9.904;2023-09-30T03:57:38;101676.72;;;12.77;100.00
16255;BME280;8235;52.198;9.904;2023-09-30T04:00:06;101668.78;;;12.75;100.00
16255;BME280;8235;52.198;9.904;2023-09-30T04:02:32;101674.22;;;12.74;100.00
16255;BME280;8235;52.198;9.904;2023-09-30T04:04:59;101668.88;;;12.74;100.00
16255;BME280;8235;52.198;9.904;2023-09-30T04:07:28;101670.81;;;12.72;100.00
16255;BME280;8235;52.198;9.904;2023-09-30T04:09:55;101675.38;;;12.70;100.00
16255;BME280;8235;52.198;9.904;2023-09-30T04:12:22;101680.88;;;12.67;100.00
16255;BME280;8235;52.198;9.904;2023-09-30T04:14:50;101684.50;;;12.66;100.00
16255;BME280;8235;52.198;9.904;2023-09-30T04:17:17;101682.78;;;12.65;100.00
16255;BME280;8235;52.198;9.904;2023-09-30T04:19:43;101682.94;;;12.62;100.00
16255;BME280;8235;52.198;9.904;2023-09-30T04:22:10;101682.06;;;12.61;100.00
16255;BME280;8235;52.198;9.904;2023-09-30T04:24:38;101680.25;;;12.62;100.00
16255;BME280;8235;52.198;9.904;2023-09-30T04:27:04;101682.16;;;12.60;100.00
16255;BME280;8235;52.198;9.904;2023-09-30T04:29:33;101687.50;;;12.60;100.00
16255;BME280;8235;52.198;9.904;2023-09-30T04:32:01;101678.69;;;12.58;100.00
16255;BME280;8235;52.198;9.904;2023-09-30T04:34:27;101681.38;;;12.58;100.00
16255;BME280;8235;52.198;9.904;2023-09-30T04:36:54;101681.38;;;12.58;100.00
16255;BME280;8235;52.198;9.904;2023-09-30T04:39:21;101687.50;;;12.60;100.00
16255;BME280;8235;52.198;9.904;2023-09-30T04:41:48;101681.38;;;12.58;100.00
16255;BME280;8235;52.198;9.904;2023-09-30T04:44:14;101690.34;;;12.57;100.00
16255;BME280;8235;52.198;9.904;2023-09-30T04:46:41;101696.53;;;12.57;100.00
16255;BME280;8235;52.198;9.904;2023-09-30T04:49:14;101695.88;;;12.54;100.00
16255;BME280;8235;52.198;9.904;2023-09-30T04:51:40;101695.00;;;12.53;100.00
16255;BME280;8235;52.198;9.904;2023-09-30T04:54:07;101690.53;;;12.54;100.00
16255;BME280;8235;52.198;9.904;2023-09-30T04:56:34;101698.53;;;12.54;100.00
16255;BME280;8235;52.198;9.904;2023-09-30T04:59:01;101695.88;;;12.54;100.00
16255;BME280;8235;52.198;9.904;2023-09-30T05:01:29;101693.19;;;12.54;100.00
16255;BME280;8235;52.198;9.904;2023-09-30T05:03:56;101690.53;;;12.54;100.00
16255;BME280;8235;52.198;9.904;2023-09-30T05:06:24;101685.25;;;12.52;100.00
16255;BME280;8235;52.198;9.904;2023-09-30T05:08:50;101698.63;;;12.52;100.00
16255;BME280;8235;52.198;9.904;2023-09-30T05:11:17;101703.97;;;12.52;100.00
16255;BME280;8235;52.198;9.904;2023-09-30T05:13:44;101695.16;;;12.50;100.00
16255;BME280;8235;52.198;9.904;2023-09-30T05:16:10;101706.72;;;12.50;100.00
16255;BME280;8235;52.198;9.904;2023-09-30T05:18:38;101707.59;;;12.51;100.00
16255;BME280;8235;52.198;9.904;2023-09-30T05:21:05;101706.72;;;12.50;100.00
16255;BME280;8235;52.198;9.904;2023-09-30T05:23:33;101704.06;;;12.50;100.00
16255;BME280;8235;52.198;9.904;2023-09-30T05:26:01;101716.63;;;12.48;100.00
16255;BME280;8235;52.198;9.904;2023-09-30T05:28:27;101721.28;;;12.45;100.00
16255;BME280;8235;52.198;9.904;2023-09-30T05:30:54;101715.06;;;12.44;100.00
16255;BME280;8235;52.198;9.904;2023-09-30T05:33:21;101709.72;;;12.44;100.00
16255;BME280;8235;52.198;9.904;2023-09-30T05:35:48;101718.69;;;12.43;100.00
16255;BME280;8235;52.198;9.904;2023-09-30T05:38:15;101720.56;;;12.41;100.00
16255;BME280;8235;52.198;9.904;2023-09-30T05:40:43;101713.56;;;12.39;100.00
16255;BME280;8235;52.198;9.904;2023-09-30T05:43:10;101718.06;;;12.38;100.00
16255;BME280;8235;52.198;9.904;2023-09-30T05:45:39;101705.63;;;12.37;100.00
16255;BME280;8235;52.198;9.904;2023-09-30T05:48:14;101707.38;;;12.38;100.00
16255;BME280;8235;52.198;9.904;2023-09-30T05:50:41;101716.25;;;12.39;100.00
16255;BME280;8235;52.198;9.904;2023-09-30T05:53:09;101713.56;;;12.39;100.00
16255;BME280;8235;52.198;9.904;2023-09-30T05:55:36;101708.22;;;12.39;100.00
16255;BME280;8235;52.198;9.904;2023-09-30T05:58:04;101716.16;;;12.40;100.00
16255;BME280;8235;52.198;9.904;2023-09-30T06:00:31;101721.34;;;12.43;100.00
16255;BME280;8235;52.198;9.904;2023-09-30T06:03:00;101721.34;;;12.43;100.00
16255;BME280;8235;52.198;9.904;2023-09-30T06:05:29;101723.06;;;12.44;100.00
16255;BME280;8235;52.198;9.904;2023-09-30T06:07:57;101723.78;;;12.48;100.00
16255;BME280;8235;52.198;9.904;2023-09-30T06:10:23;101739.81;;;12.48;100.00
16255;BME280;8235;52.198;9.904;2023-09-30T06:12:52;101746.88;;;12.49;100.00
16255;BME280;8235;52.198;9.904;2023-09-30T06:15:22;101756.63;;;12.50;100.00
16255;BME280;8235;52.198;9.904;2023-09-30T06:17:51;101763.63;;;12.52;100.00
16255;BME280;8235;52.198;9.904;2023-09-30T06:20:18;101761.69;;;12.55;100.00
16255;BME280;8235;52.198;9.904;2023-09-30T06:22:45;101766.88;;;12.58;100.00
16255;BME280;8235;52.198;9.904;2023-09-30T06:25:14;101767.50;;;12.63;100.00
16255;BME280;8235;52.198;9.904;2023-09-30T06:27:42;101771.75;;;12.67;100.00
16255;BME280;8235;52.198;9.904;2023-09-30T06:30:09;101770.81;;;12.68;100.00
16255;BME280;8235;52.198;9.904;2023-09-30T06:32:37;101765.31;;;12.71;100.00
16255;BME280;8235;52.198;9.904;2023-09-30T06:35:04;101767.84;;;12.72;100.00
16255;BME280;8235;52.198;9.904;2023-09-30T06:37:31;101765.09;;;12.74;100.00
16255;BME280;8235;52.198;9.904;2023-09-30T06:39:58;101772.09;;;12.76;100.00
16255;BME280;8235;52.198;9.904;2023-09-30T06:42:25;101789.00;;;12.77;100.00
16255;BME280;8235;52.198;9.904;2023-09-30T06:44:52;101785.22;;;12.81;100.00
16255;BME280;8235;52.198;9.904;2023-09-30T06:47:19;101787.81;;;12.82;100.00
16255;BME280;8235;52.198;9.904;2023-09-30T06:49:47;101783.16;;;12.86;100.00
16255;BME280;8235;52.198;9.904;2023-09-30T06:52:14;101781.88;;;12.93;100.00
16255;BME280;8235;52.198;9.904;2023-09-30T06:54:40;101778.16;;;12.96;100.00
16255;BME280;8235;52.198;9.904;2023-09-30T06:57:07;101778.88;;;12.99;100.00
16255;BME280;8235;52.198;9.904;2023-09-30T06:59:35;101773.34;;;13.02;100.00
16255;BME280;8235;52.198;9.904;2023-09-30T07:02:02;101782.16;;;13.04;100.00
16255;BME280;8235;52.198;9.904;2023-09-30T07:04:29;101801.53;;;13.08;100.00
16255;BME280;8235;52.198;9.904;2023-09-30T07:06:57;101801.28;;;13.12;100.00
16255;BME280;8235;52.198;9.904;2023-09-30T07:09:24;101797.53;;;13.16;100.00
16255;BME280;8235;52.198;9.904;2023-09-30T07:11:52;101799.09;;;13.20;100.00
16255;BME280;8235;52.198;9.904;2023-09-30T07:14:18;101798.94;;;13.24;100.00
16255;BME280;8235;52.198;9.904;2023-09-30T07:16:44;101798.50;;;13.31;100.00
16255;BME280;8235;52.198;9.904;2023-09-30T07:19:11;101804.44;;;13.36;100.00
16255;BME280;8235;52.198;9.904;2023-09-30T07:21:37;101812.13;;;13.42;100.00
16255;BME280;8235;52.198;9.904;2023-09-30T07:24:06;101813.59;;;13.48;100.00
16255;BME280;8235;52.198;9.904;2023-09-30T07:26:33;101808.75;;;13.54;100.00
16255;BME280;8235;52.198;9.904;2023-09-30T07:28:59;101810.22;;;13.60;100.00
16255;BME280;8235;52.198;9.904;2023-09-30T07:31:25;101814.09;;;13.70;100.00
16255;BME280;8235;52.198;9.904;2023-09-30T07:33:52;101821.69;;;13.78;100.00
16255;BME280;8235;52.198;9.904;2023-09-30T07:36:18;101815.69;;;13.88;100.00
16255;BME280;8235;52.198;9.904;2023-09-30T07:38:45;101809.91;;;13.96;100.00
16255;BME280;8235;52.198;9.904;2023-09-30T07:41:13;101817.28;;;14.07;100.00
16255;BME280;8235;52.198;9.904;2023-09-30T07:43:40;101827.44;;;14.16;100.00
16255;BME280;8235;52.198;9.904;2023-09-30T07:46:06;101821.44;;;14.27;100.00
16255;BME280;8235;52.198;9.904;2023-09-30T07:48:33;101832.47;;;14.36;99.80
16255;BME280;8235;52.198;9.904;2023-09-30T07:51:00;101832.63;;;14.49;98.55
16255;BME280;8235;52.198;9.904;2023-09-30T07:53:27;101838.38;;;14.57;98.61
16255;BME280;8235;52.198;9.904;2023-09-30T07:55:54;101842.88;;;14.71;97.15
16255;BME280;8235;52.198;9.904;2023-09-30T07:58:23;101841.38;;;14.81;95.63
16255;BME280;8235;52.198;9.904;2023-09-30T08:00:50;101850.47;;;14.92;94.58
16255;BME280;8235;52.198;9.904;2023-09-30T08:03:16;101842.81;;;15.01;94.30
16255;BME280;8235;52.198;9.904;2023-09-30T08:05:43;101845.47;;;15.15;93.57
16255;BME280;8235;52.198;9.904;2023-09-30T08:08:09;101850.06;;;15.27;92.42
16255;BME280;8235;52.198;9.904;2023-09-30T08:10:36;101848.72;;;15.34;91.03
16255;BME280;8235;52.198;9.904;2023-09-30T08:13:03;101848.00;;;15.45;90.56
16255;BME280;8235;52.198;9.904;2023-09-30T08:15:31;101851.06;;;15.53;89.86
16255;BME280;8235;52.198;9.904;2023-09-30T08:17:57;101847.91;;;15.60;89.82
16255;BME280;8235;52.198;9.904;2023-09-30T08:20:25;101856.03;;;15.73;89.13
16255;BME280;8235;52.198;9.904;2023-09-30T08:22:53;101853.59;;;15.83;88.61
16255;BME280;8235;52.198;9.904;2023-09-30T08:25:19;101848.78;;;15.88;87.00
16255;BME280;8235;52.198;9.904;2023-09-30T08:27:46;101851.59;;;15.99;86.99
16255;BME280;8235;52.198;9.904;2023-09-30T08:30:15;101857.44;;;16.06;87.02
16255;BME280;8235;52.198;9.904;2023-09-30T08:32:43;101854.13;;;16.15;86.66
16255;BME280;8235;52.198;9.904;2023-09-30T08:35:10;101855.13;;;16.26;86.06
16255;BME280;8235;52.198;9.904;2023-09-30T08:37:38;101857.19;;;16.36;85.63
16255;BME280;8235;52.198;9.904;2023-09-30T08:40:05;101868.09;;;16.47;84.69
16255;BME280;8235;52.198;9.904;2023-09-30T08:42:35;101859.91;;;16.61;84.23
16255;BME280;8235;52.198;9.904;2023-09-30T08:45:01;101857.38;;;16.72;83.12
16255;BME280;8235;52.198;9.904;2023-09-30T08:47:31;101863.84;;;16.82;81.90
16255;BME280;8235;52.198;9.904;2023-09-30T08:50:00;101864.34;;;16.87;81.17
16255;BME280;8235;52.198;9.904;2023-09-30T08:52:31;101856.63;;;16.95;80.63
16255;BME280;8235;52.198;9.904;2023-09-30T08:54:58;101858.03;;;17.01;80.26
16255;BME280;8235;52.198;9.904;2023-09-30T08:57:25;101854.66;;;17.10;80.38
16255;BME280;8235;52.198;9.904;2023-09-30T08:59:53;101855.69;;;17.20;79.08
16255;BME280;8235;52.198;9.904;2023-09-30T09:02:20;101865.19;;;17.26;77.21
16255;BME280;8235;52.198;9.904;2023-09-30T09:04:46;101868.63;;;17.28;75.68
16255;BME280;8235;52.198;9.904;2023-09-30T09:07:15;101872.72;;;17.33;76.30
16255;BME280;8235;52.198;9.904;2023-09-30T09:10:02;101877.41;;;17.43;76.41
16255;BME280;8235;52.198;9.904;2023-09-30T09:12:29;101866.84;;;17.52;76.33
16255;BME280;8235;52.198;9.904;2023-09-30T09:14:55;101865.09;;;17.64;74.74
16255;BME280;8235;52.198;9.904;2023-09-30T09:17:22;101877.66;;;17.76;74.45
16255;BME280;8235;52.198;9.904;2023-09-30T09:19:59;101877.09;;;17.84;73.69
16255;BME280;8235;52.198;9.904;2023-09-30T09:22:38;101876.28;;;17.94;73.38
16255;BME280;8235;52.198;9.904;2023-09-30T09:25:06;101883.72;;;18.03;73.50
16255;BME280;8235;52.198;9.904;2023-09-30T09:27:34;101873.06;;;18.13;72.62
16255;BME280;8235;52.198;9.904;2023-09-30T09:30:14;101870.44;;;18.24;72.22
16255;BME280;8235;52.198;9.904;2023-09-30T09:32:52;101868.63;;;18.36;71.96
16255;BME280;8235;52.198;9.904;2023-09-30T09:35:20;101867.78;;;18.47;70.70
16255;BME280;8235;52.198;9.904;2023-09-30T09:37:55;101872.50;;;18.56;69.15
16255;BME280;8235;52.198;9.904;2023-09-30T09:40:23;101861.88;;;18.65;68.20
16255;BME280;8235;52.198;9.904;2023-09-30T09:42:50;101859.91;;;18.67;67.52
16255;BME280;8235;52.198;9.904;2023-09-30T09:45:20;101860.41;;;18.72;67.31
16255;BME280;8235;52.198;9.904;2023-09-30T09:47:48;101863.88;;;18.75;66.80
16255;BME280;8235;52.198;9.904;2023-09-30T09:50:15;101859.09;;;18.78;67.01
16255;BME280;8235;52.198;9.904;2023-09-30T09:52:42;101856.00;;;18.83;66.67
16255;BME280;8235;52.198;9.904;2023-09-30T09:55:10;101852.09;;;18.87;66.68
16255;BME280;8235;52.198;9.904;2023-09-30T09:57:37;101848.28;;;18.89;66.62
16255;BME280;8235;52.198;9.904;2023-09-30T10:00:06;101848.91;;;18.93;66.28
16255;BME280;8235;52.198;9.904;2023-09-30T10:02:39;101851.25;;;18.97;66.35
16255;BME280;8235;52.198;9.904;2023-09-30T10:05:06;101868.53;;;19.06;66.54
16255;BME280;8235;52.198;9.904;2023-09-30T10:07:36;101853.81;;;19.10;65.29
16255;BME280;8235;52.198;9.904;2023-09-30T10:10:09;101852.47;;;19.16;64.81
16255;BME280;8235;52.198;9.904;2023-09-30T10:12:40;101857.50;;;19.20;65.04
16255;BME280;8235;52.198;9.904;2023-09-30T10:15:37;101857.00;;;19.26;64.02
16255;BME280;8235;52.198;9.904;2023-09-30T10:18:06;101859.47;;;19.29;64.01
16255;BME280;8235;52.198;9.904;2023-09-30T10:20:34;101862.91;;;19.31;62.80
16255;BME280;8235;52.198;9.904;2023-09-30T10:23:20;101871.00;;;19.31;62.09
16255;BME280;8235;52.198;9.904;2023-09-30T10:25:48;101873.72;;;19.31;61.36
16255;BME280;8235;52.198;9.904;2023-09-30T10:28:39;101863.66;;;19.33;61.26
16255;BME280;8235;52.198;9.904;2023-09-30T10:31:16;101860.66;;;19.36;61.37
16255;BME280;8235;52.198;9.904;2023-09-30T10:34:24;101867.06;;;19.47;61.01
16255;BME280;8235;52.198;9.904;2023-09-30T10:36:51;101871.34;;;19.49;59.34
16255;BME280;8235;52.198;9.904;2023-09-30T10:44:50;101871.16;;;19.52;59.23
16255;BME280;8235;52.198;9.904;2023-09-30T10:47:34;101856.75;;;19.63;58.93
16255;BME280;8235;52.198;9.904;2023-09-30T10:50:01;101857.34;;;19.66;57.39
16255;BME280;8235;52.198;9.904;2023-09-30T10:52:27;101873.16;;;19.71;57.22
16255;BME280;8235;52.198;9.904;2023-09-30T10:54:54;101878.94;;;19.77;56.83
16255;BME280;8235;52.198;9.904;2023-09-30T10:57:27;101874.88;;;19.83;56.38
16255;BME280;8235;52.198;9.904;2023-09-30T11:00:08;101867.09;;;19.90;55.89
16255;BME280;8235;52.198;9.904;2023-09-30T11:02:47;101858.00;;;19.91;54.37
16255;BME280;8235;52.198;9.904;2023-09-30T11:05:14;101849.50;;;19.95;53.87
16255;BME280;8235;52.198;9.904;2023-09-30T11:07:41;101849.13;;;20.00;53.68
16255;BME280;8235;52.198;9.904;2023-09-30T11:10:09;101851.72;;;20.01;54.67
16255;BME280;8235;52.198;9.904;2023-09-30T11:12:37;101863.72;;;20.08;54.87
16255;BME280;8235;52.198;9.904;2023-09-30T11:15:04;101858.91;;;20.12;54.65
16255;BME280;8235;52.198;9.904;2023-09-30T11:17:35;101851.28;;;20.17;54.48
16255;BME280;8235;52.198;9.904;2023-09-30T11:20:03;101840.31;;;20.19;53.52
16255;BME280;8235;52.198;9.904;2023-09-30T11:22:31;101845.72;;;20.19;51.92
16255;BME280;8235;52.198;9.904;2023-09-30T11:25:00;101837.63;;;20.19;51.95
16255;BME280;8235;52.198;9.904;2023-09-30T11:27:26;101843.41;;;20.14;52.23
16255;BME280;8235;52.198;9.904;2023-09-30T11:29:53;101850.78;;;20.12;51.24
16255;BME280;8235;52.198;9.904;2023-09-30T11:32:25;101848.09;;;20.12;51.57
16255;BME280;8235;52.198;9.904;2023-09-30T11:34:53;101834.81;;;20.09;50.61
16255;BME280;8235;52.198;9.904;2023-09-30T11:37:20;101823.13;;;20.08;50.78
16255;BME280;8235;52.198;9.904;2023-09-30T11:39:47;101827.69;;;20.08;50.55
16255;BME280;8235;52.198;9.904;2023-09-30T11:42:17;101829.53;;;20.07;50.75
16255;BME280;8235;52.198;9.904;2023-09-30T11:44:45;101831.78;;;20.02;50.23
16255;BME280;8235;52.198;9.904;2023-09-30T11:47:13;101830.19;;;20.00;49.79
16255;BME280;8235;52.198;9.904;2023-09-30T11:49:42;101830.31;;;19.98;48.21
16255;BME280;8235;52.198;9.904;2023-09-30T11:52:12;101817.78;;;19.97;48.54
16255;BME280;8235;52.198;9.904;2023-09-30T11:54:40;101818.53;;;19.99;49.41
16255;BME280;8235;52.198;9.904;2023-09-30T11:57:09;101821.09;;;20.01;49.33
16255;BME280;8235;52.198;9.904;2023-09-30T11:59:36;101823.81;;;20.01;48.60
16255;BME280;8235;52.198;9.904;2023-09-30T12:02:04;101823.31;;;19.96;49.12
16255;BME280;8235;52.198;9.904;2023-09-30T12:04:31;101824.69;;;19.90;48.52
16255;BME280;8235;52.198;9.904;2023-09-30T12:06:58;101831.94;;;19.90;49.76
16255;BME280;8235;52.198;9.904;2023-09-30T12:09:26;101837.97;;;19.93;50.31
16255;BME280;8235;52.198;9.904;2023-09-30T12:11:53;101827.63;;;19.98;50.50
16255;BME280;8235;52.198;9.904;2023-09-30T12:14:21;101835.47;;;20.01;50.68
16255;BME280;8235;52.198;9.904;2023-09-30T12:16:47;101827.25;;;20.03;50.23
16255;BME280;8235;52.198;9.904;2023-09-30T12:19:15;101827.97;;;20.05;50.60
16255;BME280;8235;52.198;9.904;2023-09-30T12:21:43;101828.56;;;20.08;50.75
16255;BME280;8235;52.198;9.904;2023-09-30T12:24:13;101816.50;;;20.13;50.07
16255;BME280;8235;52.198;9.904;2023-09-30T12:26:43;101819.06;;;20.14;49.96
16255;BME280;8235;52.198;9.904;2023-09-30T12:29:13;101808.84;;;20.18;50.01
16255;BME280;8235;52.198;9.904;2023-09-30T12:31:41;101809.44;;;20.21;50.00
16255;BME280;8235;52.198;9.904;2023-09-30T12:34:08;101807.31;;;20.25;50.26
16255;BME280;8235;52.198;9.904;2023-09-30T12:36:35;101802.25;;;20.31;50.18
16255;BME280;8235;52.198;9.904;2023-09-30T12:39:01;101801.00;;;20.35;50.79
16255;BME280;8235;52.198;9.904;2023-09-30T12:41:35;101803.59;;;20.37;48.64
16255;BME280;8235;52.198;9.904;2023-09-30T12:44:03;101799.53;;;20.31;47.22
16255;BME280;8235;52.198;9.904;2023-09-30T12:46:30;101800.47;;;20.21;47.79
16255;BME280;8235;52.198;9.904;2023-09-30T12:48:59;101792.63;;;20.18;48.64
16255;BME280;8235;52.198;9.904;2023-09-30T12:51:26;101783.78;;;20.16;49.54
16255;BME280;8235;52.198;9.904;2023-09-30T12:53:52;101789.19;;;20.16;49.82
16255;BME280;8235;52.198;9.904;2023-09-30T12:56:19;101787.22;;;20.18;50.11
16255;BME280;8235;52.198;9.904;2023-09-30T12:58:46;101785.09;;;20.21;50.23
16255;BME280;8235;52.198;9.904;2023-09-30T13:01:14;101785.50;;;20.17;49.66
16255;BME280;8235;52.198;9.904;2023-09-30T13:03:43;101783.31;;;20.10;49.59
16255;BME280;8235;52.198;9.904;2023-09-30T13:06:09;101787.41;;;20.05;49.86